sensor_id;sensor_type;location;lat;lon;timestamp;P1;durP1;ratioP1;P2;durP2;ratioP2
22270;SDS011;11304;53.520;10.104;2023-08-17T00:01:54;11.73;;;2.85;;
22270;SDS011;11304;53.520;10.104;2023-08-17T00:04:20;8.20;;;2.17;;
22270;SDS011;11304;53.520;10.104;2023-08-17T00:06:46;6.65;;;2.08;;
22270;SDS011;11304;53.520;10.104;2023-08-17T00:09:12;5.28;;;1.98;;
22270;SDS011;11304;53.520;10.104;2023-08-17T00:11:38;8.23;;;2.45;;
22270;SDS011;11304;53.520;10.104;2023-08-17T00:14:05;9.55;;;2.70;;
22270;SDS011;11304;53.520;10.104;2023-08-17T00:16:31;10.27;;;2.38;;
22270;SDS011;11304;53.520;10.104;2023-08-17T00:18:57;8.40;;;2.38;;
22270;SDS011;11304;53.520;10.104;2023-08-17T00:21:24;7.63;;;2.00;;
22270;SDS011;11304;53.520;10.104;2023-08-17T00:23:50;6.55;;;2.50;;
22270;SDS011;11304;53.520;10.104;2023-08-17T00:26:16;8.57;;;2.50;;
22270;SDS011;11304;53.520;10.104;2023-08-17T00:28:42;10.43;;;2.13;;
22270;SDS011;11304;53.520;10.104;2023-08-17T00:31:09;6.97;;;2.22;;
22270;SDS011;11304;53.520;10.104;2023-08-17T00:33:35;6.57;;;1.95;;
22270;SDS011;11304;53.520;10.104;2023-08-17T00:36:01;8.20;;;2.15;;
22270;SDS011;11304;53.520;10.104;2023-08-17T00:38:27;8.48;;;1.95;;
22270;SDS011;11304;53.520;10.104;2023-08-17T00:40:53;10.93;;;2.30;;
22270;SDS011;11304;53.520;10.104;2023-08-17T00:43:20;5.03;;;1.65;;
22270;SDS011;11304;53.520;10.104;2023-08-17T00:45:46;6.20;;;2.13;;
22270;SDS011;11304;53.520;10.104;2023-08-17T00:48:12;5.28;;;1.73;;
22270;SDS011;11304;53.520;10.104;2023-08-17T00:50:39;5.13;;;1.67;;
22270;SDS011;11304;53.520;10.104;2023-08-17T00:53:05;7.80;;;1.77;;
22270;SDS011;11304;53.520;10.104;2023-08-17T00:55:32;5.63;;;1.83;;
22270;SDS011;11304;53.520;10.104;2023-08-17T00:57:58;8.93;;;1.65;;
22270;SDS011;11304;53.520;10.104;2023-08-17T01:00:25;5.07;;;1.55;;
22270;SDS011;11304;53.520;10.104;2023-08-17T01:02:54;4.10;;;1.30;;
22270;SDS011;11304;53.520;10.104;2023-08-17T01:05:21;6.28;;;1.63;;
22270;SDS011;11304;53.520;10.104;2023-08-17T01:07:47;4.63;;;1.77;;
22270;SDS011;11304;53.520;10.104;2023-08-17T01:10:13;3.40;;;1.40;;
22270;SDS011;11304;53.520;10.104;2023-08-17T01:15:26;6.32;;;1.80;;
22270;SDS011;11304;53.520;10.104;2023-08-17T01:20:19;8.98;;;2.10;;
22270;SDS011;11304;53.520;10.104;2023-08-17T01:22:46;4.85;;;1.77;;
22270;SDS011;11304;53.520;10.104;2023-08-17T01:25:14;14.38;;;1.98;;
22270;SDS011;11304;53.520;10.104;2023-08-17T01:27:42;6.53;;;1.70;;
22270;SDS011;11304;53.520;10.104;2023-08-17T01:30:09;4.63;;;1.73;;
22270;SDS011;11304;53.520;10.104;2023-08-17T01:35:28;5.68;;;1.90;;
22270;SDS011;11304;53.520;10.104;2023-08-17T01:38:00;10.50;;;1.90;;
22270;SDS011;11304;53.520;10.104;2023-08-17T01:40:31;5.57;;;2.00;;
22270;SDS011;11304;53.520;10.104;2023-08-17T01:42:58;8.73;;;1.67;;
22270;SDS011;11304;53.520;10.104;2023-08-17T01:45:25;9.07;;;1.42;;
22270;SDS011;11304;53.520;10.104;2023-08-17T01:47:51;7.57;;;2.00;;
22270;SDS011;11304;53.520;10.104;2023-08-17T01:50:17;3.95;;;1.40;;
22270;SDS011;11304;53.520;10.104;2023-08-17T01:52:43;7.32;;;1.77;;
22270;SDS011;11304;53.520;10.104;2023-08-17T01:55:09;7.93;;;1.70;;
22270;SDS011;11304;53.520;10.104;2023-08-17T01:57:35;6.53;;;1.40;;
22270;SDS011;11304;53.520;10.104;2023-08-17T02:00:02;6.47;;;1.52;;
22270;SDS011;11304;53.520;10.104;2023-08-17T02:02:29;7.32;;;1.92;;
22270;SDS011;11304;53.520;10.104;2023-08-17T02:04:55;6.22;;;1.40;;
22270;SDS011;11304;53.520;10.104;2023-08-17T02:07:22;6.53;;;1.58;;
22270;SDS011;11304;53.520;10.104;2023-08-17T02:09:48;7.30;;;1.70;;
22270;SDS011;11304;53.520;10.104;2023-08-17T02:12:14;5.82;;;1.85;;
22270;SDS011;11304;53.520;10.104;2023-08-17T02:14:40;6.15;;;1.60;;
22270;SDS011;11304;53.520;10.104;2023-08-17T02:17:06;5.10;;;1.30;;
22270;SDS011;11304;53.520;10.104;2023-08-17T02:19:33;4.97;;;1.52;;
22270;SDS011;11304;53.520;10.104;2023-08-17T02:21:59;3.47;;;1.25;;
22270;SDS011;11304;53.520;10.104;2023-08-17T02:24:25;4.53;;;1.50;;
22270;SDS011;11304;53.520;10.104;2023-08-17T02:26:51;8.15;;;1.80;;
22270;SDS011;11304;53.520;10.104;2023-08-17T02:29:17;6.18;;;1.63;;
22270;SDS011;11304;53.520;10.104;2023-08-17T02:31:43;7.22;;;1.42;;
22270;SDS011;11304;53.520;10.104;2023-08-17T02:34:09;9.82;;;2.17;;
22270;SDS011;11304;53.520;10.104;2023-08-17T02:36:35;5.18;;;1.75;;
22270;SDS011;11304;53.520;10.104;2023-08-17T02:39:01;8.10;;;1.92;;
22270;SDS011;11304;53.520;10.104;2023-08-17T02:41:28;7.00;;;1.63;;
22270;SDS011;11304;53.520;10.104;2023-08-17T02:43:57;5.47;;;1.65;;
22270;SDS011;11304;53.520;10.104;2023-08-17T02:46:23;6.07;;;1.60;;
22270;SDS011;11304;53.520;10.104;2023-08-17T02:48:49;5.35;;;1.40;;
22270;SDS011;11304;53.520;10.104;2023-08-17T02:51:16;8.35;;;1.60;;
22270;SDS011;11304;53.520;10.104;2023-08-17T02:53:42;5.07;;;1.73;;
22270;SDS011;11304;53.520;10.104;2023-08-17T02:56:08;4.35;;;1.60;;
22270;SDS011;11304;53.520;10.104;2023-08-17T02:58:37;7.00;;;2.00;;
22270;SDS011;11304;53.520;10.104;2023-08-17T03:03:31;4.50;;;1.50;;
22270;SDS011;11304;53.520;10.104;2023-08-17T03:05:57;9.50;;;1.83;;
22270;SDS011;11304;53.520;10.104;2023-08-17T03:08:23;4.85;;;1.73;;
22270;SDS011;11304;53.520;10.104;2023-08-17T03:10:50;5.90;;;1.50;;
22270;SDS011;11304;53.520;10.104;2023-08-17T03:13:16;8.50;;;1.70;;
22270;SDS011;11304;53.520;10.104;2023-08-17T03:15:42;4.35;;;1.60;;
22270;SDS011;11304;53.520;10.104;2023-08-17T03:18:08;7.05;;;1.67;;
22270;SDS011;11304;53.520;10.104;2023-08-17T03:20:34;5.30;;;1.45;;
22270;SDS011;11304;53.520;10.104;2023-08-17T03:23:00;3.22;;;1.52;;
22270;SDS011;11304;53.520;10.104;2023-08-17T03:25:26;3.90;;;1.48;;
22270;SDS011;11304;53.520;10.104;2023-08-17T03:27:52;6.72;;;1.92;;
22270;SDS011;11304;53.520;10.104;2023-08-17T03:30:19;5.25;;;1.58;;
22270;SDS011;11304;53.520;10.104;2023-08-17T03:32:45;6.65;;;1.80;;
22270;SDS011;11304;53.520;10.104;2023-08-17T03:35:11;12.15;;;2.00;;
22270;SDS011;11304;53.520;10.104;2023-08-17T03:37:38;6.05;;;1.70;;
22270;SDS011;11304;53.520;10.104;2023-08-17T03:40:04;8.35;;;1.60;;
22270;SDS011;11304;53.520;10.104;2023-08-17T03:42:30;4.53;;;1.70;;
22270;SDS011;11304;53.520;10.104;2023-08-17T03:44:56;5.72;;;1.83;;
22270;SDS011;11304;53.520;10.104;2023-08-17T03:47:23;4.72;;;1.70;;
22270;SDS011;11304;53.520;10.104;2023-08-17T03:49:49;5.50;;;1.65;;
22270;SDS011;11304;53.520;10.104;2023-08-17T03:52:15;10.10;;;1.60;;
22270;SDS011;11304;53.520;10.104;2023-08-17T03:54:41;5.63;;;1.75;;
22270;SDS011;11304;53.520;10.104;2023-08-17T03:57:07;6.05;;;1.63;;
22270;SDS011;11304;53.520;10.104;2023-08-17T03:59:33;9.77;;;1.38;;
22270;SDS011;11304;53.520;10.104;2023-08-17T04:01:59;8.68;;;1.65;;
22270;SDS011;11304;53.520;10.104;2023-08-17T04:04:25;4.53;;;1.48;;
22270;SDS011;11304;53.520;10.104;2023-08-17T04:06:51;9.75;;;2.00;;
22270;SDS011;11304;53.520;10.104;2023-08-17T04:09:17;6.65;;;1.73;;
22270;SDS011;11304;53.520;10.104;2023-08-17T04:11:44;8.50;;;2.38;;
22270;SDS011;11304;53.520;10.104;2023-08-17T04:14:10;5.63;;;1.58;;
22270;SDS011;11304;53.520;10.104;2023-08-17T04:16:37;5.22;;;1.63;;
22270;SDS011;11304;53.520;10.104;2023-08-17T04:19:03;13.70;;;2.10;;
22270;SDS011;11304;53.520;10.104;2023-08-17T04:21:29;3.95;;;1.35;;
22270;SDS011;11304;53.520;10.104;2023-08-17T04:23:56;5.68;;;1.42;;
22270;SDS011;11304;53.520;10.104;2023-08-17T04:26:22;9.63;;;1.77;;
22270;SDS011;11304;53.520;10.104;2023-08-17T04:28:49;9.10;;;2.15;;
22270;SDS011;11304;53.520;10.104;2023-08-17T04:31:15;8.00;;;2.00;;
22270;SDS011;11304;53.520;10.104;2023-08-17T04:33:42;10.80;;;1.90;;
22270;SDS011;11304;53.520;10.104;2023-08-17T04:36:08;6.43;;;2.05;;
22270;SDS011;11304;53.520;10.104;2023-08-17T04:38:34;5.28;;;1.90;;
22270;SDS011;11304;53.520;10.104;2023-08-17T04:41:00;8.50;;;1.70;;
22270;SDS011;11304;53.520;10.104;2023-08-17T04:43:26;6.13;;;1.70;;
22270;SDS011;11304;53.520;10.104;2023-08-17T04:45:52;6.25;;;1.90;;
22270;SDS011;11304;53.520;10.104;2023-08-17T04:48:18;5.70;;;1.70;;
22270;SDS011;11304;53.520;10.104;2023-08-17T04:50:45;10.23;;;2.42;;
22270;SDS011;11304;53.520;10.104;2023-08-17T04:53:11;8.20;;;1.90;;
22270;SDS011;11304;53.520;10.104;2023-08-17T04:55:37;8.77;;;1.98;;
22270;SDS011;11304;53.520;10.104;2023-08-17T04:58:03;9.13;;;2.42;;
22270;SDS011;11304;53.520;10.104;2023-08-17T05:00:30;13.10;;;2.25;;
22270;SDS011;11304;53.520;10.104;2023-08-17T05:02:56;6.97;;;1.60;;
22270;SDS011;11304;53.520;10.104;2023-08-17T05:05:22;3.70;;;1.88;;
22270;SDS011;11304;53.520;10.104;2023-08-17T05:07:49;6.97;;;1.70;;
22270;SDS011;11304;53.520;10.104;2023-08-17T05:10:15;5.10;;;1.65;;
22270;SDS011;11304;53.520;10.104;2023-08-17T05:12:41;6.88;;;1.75;;
22270;SDS011;11304;53.520;10.104;2023-08-17T05:15:07;7.63;;;1.77;;
22270;SDS011;11304;53.520;10.104;2023-08-17T05:17:33;10.23;;;2.20;;
22270;SDS011;11304;53.520;10.104;2023-08-17T05:20:00;7.65;;;1.80;;
22270;SDS011;11304;53.520;10.104;2023-08-17T05:22:26;14.77;;;2.40;;
22270;SDS011;11304;53.520;10.104;2023-08-17T05:24:53;10.48;;;2.35;;
22270;SDS011;11304;53.520;10.104;2023-08-17T05:27:19;5.70;;;1.90;;
22270;SDS011;11304;53.520;10.104;2023-08-17T05:29:45;6.82;;;2.55;;
22270;SDS011;11304;53.520;10.104;2023-08-17T05:32:11;8.95;;;2.80;;
22270;SDS011;11304;53.520;10.104;2023-08-17T05:34:37;9.40;;;2.10;;
22270;SDS011;11304;53.520;10.104;2023-08-17T05:37:03;12.23;;;3.22;;
22270;SDS011;11304;53.520;10.104;2023-08-17T05:39:29;12.20;;;3.42;;
22270;SDS011;11304;53.520;10.104;2023-08-17T05:41:55;7.50;;;2.88;;
22270;SDS011;11304;53.520;10.104;2023-08-17T05:44:21;8.50;;;2.70;;
22270;SDS011;11304;53.520;10.104;2023-08-17T05:46:47;9.93;;;2.92;;
22270;SDS011;11304;53.520;10.104;2023-08-17T05:49:13;8.73;;;3.08;;
22270;SDS011;11304;53.520;10.104;2023-08-17T05:51:39;12.15;;;3.47;;
22270;SDS011;11304;53.520;10.104;2023-08-17T05:54:05;11.18;;;3.45;;
22270;SDS011;11304;53.520;10.104;2023-08-17T05:56:32;9.35;;;2.80;;
22270;SDS011;11304;53.520;10.104;2023-08-17T05:58:58;7.45;;;3.00;;
22270;SDS011;11304;53.520;10.104;2023-08-17T06:01:24;12.05;;;3.22;;
22270;SDS011;11304;53.520;10.104;2023-08-17T06:03:51;13.93;;;3.63;;
22270;SDS011;11304;53.520;10.104;2023-08-17T06:06:17;7.45;;;3.10;;
22270;SDS011;11304;53.520;10.104;2023-08-17T06:08:43;11.63;;;3.47;;
22270;SDS011;11304;53.520;10.104;2023-08-17T06:11:09;11.10;;;3.88;;
22270;SDS011;11304;53.520;10.104;2023-08-17T06:13:35;10.15;;;3.95;;
22270;SDS011;11304;53.520;10.104;2023-08-17T06:16:01;8.90;;;3.42;;
22270;SDS011;11304;53.520;10.104;2023-08-17T06:18:29;11.38;;;3.40;;
22270;SDS011;11304;53.520;10.104;2023-08-17T06:20:55;12.50;;;3.60;;
22270;SDS011;11304;53.520;10.104;2023-08-17T06:23:23;12.00;;;3.67;;
22270;SDS011;11304;53.520;10.104;2023-08-17T06:25:49;10.85;;;3.60;;
22270;SDS011;11304;53.520;10.104;2023-08-17T06:28:15;10.35;;;3.30;;
22270;SDS011;11304;53.520;10.104;2023-08-17T06:30:41;11.15;;;3.40;;
22270;SDS011;11304;53.520;10.104;2023-08-17T06:33:07;14.70;;;3.58;;
22270;SDS011;11304;53.520;10.104;2023-08-17T06:35:33;7.50;;;3.20;;
22270;SDS011;11304;53.520;10.104;2023-08-17T06:37:59;9.75;;;3.47;;
22270;SDS011;11304;53.520;10.104;2023-08-17T06:40:25;5.97;;;3.10;;
22270;SDS011;11304;53.520;10.104;2023-08-17T06:42:51;8.32;;;3.22;;
22270;SDS011;11304;53.520;10.104;2023-08-17T06:45:19;8.63;;;3.58;;
22270;SDS011;11304;53.520;10.104;2023-08-17T06:47:45;9.80;;;3.20;;
22270;SDS011;11304;53.520;10.104;2023-08-17T06:50:13;6.73;;;3.43;;
22270;SDS011;11304;53.520;10.104;2023-08-17T06:52:40;9.82;;;3.20;;
22270;SDS011;11304;53.520;10.104;2023-08-17T06:55:06;8.85;;;3.35;;
22270;SDS011;11304;53.520;10.104;2023-08-17T06:57:32;6.25;;;3.05;;
22270;SDS011;11304;53.520;10.104;2023-08-17T06:59:58;5.47;;;2.70;;
22270;SDS011;11304;53.520;10.104;2023-08-17T07:02:24;12.15;;;2.95;;
22270;SDS011;11304;53.520;10.104;2023-08-17T07:04:50;6.65;;;2.58;;
22270;SDS011;11304;53.520;10.104;2023-08-17T07:07:16;8.70;;;2.67;;
22270;SDS011;11304;53.520;10.104;2023-08-17T07:09:42;7.20;;;2.47;;
22270;SDS011;11304;53.520;10.104;2023-08-17T07:12:08;6.60;;;2.10;;
22270;SDS011;11304;53.520;10.104;2023-08-17T07:14:34;6.35;;;2.35;;
22270;SDS011;11304;53.520;10.104;2023-08-17T07:17:00;6.75;;;2.38;;
22270;SDS011;11304;53.520;10.104;2023-08-17T07:19:26;5.97;;;2.00;;
22270;SDS011;11304;53.520;10.104;2023-08-17T07:21:52;5.72;;;2.50;;
22270;SDS011;11304;53.520;10.104;2023-08-17T07:24:19;5.13;;;2.10;;
22270;SDS011;11304;53.520;10.104;2023-08-17T07:26:45;8.25;;;2.33;;
22270;SDS011;11304;53.520;10.104;2023-08-17T07:29:11;4.68;;;1.92;;
22270;SDS011;11304;53.520;10.104;2023-08-17T07:31:38;4.40;;;2.08;;
22270;SDS011;11304;53.520;10.104;2023-08-17T07:34:05;8.13;;;2.10;;
22270;SDS011;11304;53.520;10.104;2023-08-17T07:36:31;3.65;;;2.00;;
22270;SDS011;11304;53.520;10.104;2023-08-17T07:38:57;4.50;;;1.88;;
22270;SDS011;11304;53.520;10.104;2023-08-17T07:41:23;3.92;;;1.70;;
22270;SDS011;11304;53.520;10.104;2023-08-17T07:43:49;3.20;;;1.90;;
22270;SDS011;11304;53.520;10.104;2023-08-17T07:46:15;4.40;;;1.75;;
22270;SDS011;11304;53.520;10.104;2023-08-17T07:48:41;3.85;;;1.55;;
22270;SDS011;11304;53.520;10.104;2023-08-17T07:51:08;4.68;;;1.92;;
22270;SDS011;11304;53.520;10.104;2023-08-17T07:53:34;4.25;;;1.60;;
22270;SDS011;11304;53.520;10.104;2023-08-17T07:56:00;6.50;;;2.30;;
22270;SDS011;11304;53.520;10.104;2023-08-17T07:58:26;5.65;;;1.80;;
22270;SDS011;11304;53.520;10.104;2023-08-17T08:00:52;8.32;;;1.85;;
22270;SDS011;11304;53.520;10.104;2023-08-17T08:03:18;4.95;;;1.50;;
22270;SDS011;11304;53.520;10.104;2023-08-17T08:05:44;4.00;;;1.90;;
22270;SDS011;11304;53.520;10.104;2023-08-17T08:08:10;6.78;;;2.20;;
22270;SDS011;11304;53.520;10.104;2023-08-17T08:10:36;4.35;;;2.13;;
22270;SDS011;11304;53.520;10.104;2023-08-17T08:13:02;5.85;;;2.42;;
22270;SDS011;11304;53.520;10.104;2023-08-17T08:15:28;6.82;;;2.30;;
22270;SDS011;11304;53.520;10.104;2023-08-17T08:17:54;8.90;;;2.72;;
22270;SDS011;11304;53.520;10.104;2023-08-17T08:20:20;6.03;;;2.50;;
22270;SDS011;11304;53.520;10.104;2023-08-17T08:22:46;6.55;;;2.38;;
22270;SDS011;11304;53.520;10.104;2023-08-17T08:25:12;7.85;;;2.38;;
22270;SDS011;11304;53.520;10.104;2023-08-17T08:27:39;4.45;;;2.17;;
22270;SDS011;11304;53.520;10.104;2023-08-17T08:30:05;3.28;;;1.73;;
22270;SDS011;11304;53.520;10.104;2023-08-17T08:32:32;3.88;;;1.90;;
22270;SDS011;11304;53.520;10.104;2023-08-17T08:34:58;5.05;;;1.70;;
22270;SDS011;11304;53.520;10.104;2023-08-17T08:37:24;6.70;;;1.98;;
22270;SDS011;11304;53.520;10.104;2023-08-17T08:39:51;3.65;;;1.60;;
22270;SDS011;11304;53.520;10.104;2023-08-17T08:42:18;4.00;;;1.67;;
22270;SDS011;11304;53.520;10.104;2023-08-17T08:44:44;6.00;;;1.67;;
22270;SDS011;11304;53.520;10.104;2023-08-17T08:47:11;4.88;;;1.60;;
22270;SDS011;11304;53.520;10.104;2023-08-17T08:49:39;1.85;;;1.38;;
22270;SDS011;11304;53.520;10.104;2023-08-17T08:52:07;3.58;;;1.58;;
22270;SDS011;11304;53.520;10.104;2023-08-17T08:54:34;4.82;;;2.00;;
22270;SDS011;11304;53.520;10.104;2023-08-17T08:57:01;7.35;;;1.73;;
22270;SDS011;11304;53.520;10.104;2023-08-17T08:59:29;6.97;;;1.95;;
22270;SDS011;11304;53.520;10.104;2023-08-17T09:01:57;1.98;;;1.50;;
22270;SDS011;11304;53.520;10.104;2023-08-17T09:04:23;4.90;;;1.80;;
22270;SDS011;11304;53.520;10.104;2023-08-17T09:06:50;3.40;;;1.35;;
22270;SDS011;11304;53.520;10.104;2023-08-17T09:09:17;4.25;;;1.50;;
22270;SDS011;11304;53.520;10.104;2023-08-17T09:11:44;5.45;;;1.90;;
22270;SDS011;11304;53.520;10.104;2023-08-17T09:14:10;3.80;;;1.85;;
22270;SDS011;11304;53.520;10.104;2023-08-17T09:16:36;2.88;;;1.40;;
22270;SDS011;11304;53.520;10.104;2023-08-17T09:19:02;4.15;;;1.65;;
22270;SDS011;11304;53.520;10.104;2023-08-17T09:21:30;3.47;;;1.50;;
22270;SDS011;11304;53.520;10.104;2023-08-17T09:23:57;3.92;;;1.70;;
22270;SDS011;11304;53.520;10.104;2023-08-17T09:26:23;5.55;;;1.90;;
22270;SDS011;11304;53.520;10.104;2023-08-17T09:28:52;3.45;;;1.40;;
22270;SDS011;11304;53.520;10.104;2023-08-17T09:31:23;3.40;;;1.42;;
22270;SDS011;11304;53.520;10.104;2023-08-17T09:33:50;4.65;;;1.63;;
22270;SDS011;11304;53.520;10.104;2023-08-17T09:36:20;2.90;;;1.70;;
22270;SDS011;11304;53.520;10.104;2023-08-17T09:38:47;5.60;;;2.00;;
22270;SDS011;11304;53.520;10.104;2023-08-17T09:41:15;5.05;;;1.73;;
22270;SDS011;11304;53.520;10.104;2023-08-17T09:43:41;3.80;;;1.42;;
22270;SDS011;11304;53.520;10.104;2023-08-17T09:46:07;2.85;;;1.38;;
22270;SDS011;11304;53.520;10.104;2023-08-17T09:48:35;3.45;;;1.50;;
22270;SDS011;11304;53.520;10.104;2023-08-17T09:51:02;4.53;;;1.58;;
22270;SDS011;11304;53.520;10.104;2023-08-17T09:53:28;5.35;;;1.95;;
22270;SDS011;11304;53.520;10.104;2023-08-17T09:55:54;5.43;;;1.63;;
22270;SDS011;11304;53.520;10.104;2023-08-17T09:58:20;4.57;;;1.90;;
22270;SDS011;11304;53.520;10.104;2023-08-17T10:00:47;3.22;;;1.38;;
22270;SDS011;11304;53.520;10.104;2023-08-17T10:03:14;3.65;;;1.50;;
22270;SDS011;11304;53.520;10.104;2023-08-17T10:05:42;2.60;;;1.40;;
22270;SDS011;11304;53.520;10.104;2023-08-17T10:08:08;2.60;;;1.30;;
22270;SDS011;11304;53.520;10.104;2023-08-17T10:10:36;6.65;;;1.60;;
22270;SDS011;11304;53.520;10.104;2023-08-17T10:15:32;3.03;;;1.55;;
22270;SDS011;11304;53.520;10.104;2023-08-17T10:18:00;3.03;;;1.37;;
22270;SDS011;11304;53.520;10.104;2023-08-17T10:22:56;6.05;;;1.45;;
22270;SDS011;11304;53.520;10.104;2023-08-17T10:25:24;5.20;;;1.40;;
22270;SDS011;11304;53.520;10.104;2023-08-17T10:27:52;8.35;;;1.65;;
22270;SDS011;11304;53.520;10.104;2023-08-17T10:30:19;2.55;;;1.50;;
22270;SDS011;11304;53.520;10.104;2023-08-17T10:32:45;5.78;;;1.80;;
22270;SDS011;11304;53.520;10.104;2023-08-17T10:35:12;6.30;;;1.50;;
22270;SDS011;11304;53.520;10.104;2023-08-17T10:37:39;4.18;;;1.70;;
22270;SDS011;11304;53.520;10.104;2023-08-17T10:40:06;4.13;;;1.88;;
22270;SDS011;11304;53.520;10.104;2023-08-17T10:42:35;5.90;;;2.00;;
22270;SDS011;11304;53.520;10.104;2023-08-17T10:45:24;4.85;;;2.08;;
22270;SDS011;11304;53.520;10.104;2023-08-17T10:47:52;2.92;;;1.63;;
22270;SDS011;11304;53.520;10.104;2023-08-17T10:50:25;3.40;;;1.80;;
22270;SDS011;11304;53.520;10.104;2023-08-17T10:52:53;6.03;;;1.75;;
22270;SDS011;11304;53.520;10.104;2023-08-17T10:55:41;4.45;;;2.05;;
22270;SDS011;11304;53.520;10.104;2023-08-17T10:58:06;3.40;;;1.73;;
22270;SDS011;11304;53.520;10.104;2023-08-17T11:00:38;2.30;;;1.67;;
22270;SDS011;11304;53.520;10.104;2023-08-17T11:03:06;3.80;;;2.08;;
22270;SDS011;11304;53.520;10.104;2023-08-17T11:05:46;3.03;;;1.50;;
22270;SDS011;11304;53.520;10.104;2023-08-17T11:08:21;4.45;;;2.20;;
22270;SDS011;11304;53.520;10.104;2023-08-17T11:10:56;4.53;;;1.98;;
22270;SDS011;11304;53.520;10.104;2023-08-17T11:13:23;6.20;;;2.25;;
22270;SDS011;11304;53.520;10.104;2023-08-17T11:15:50;10.45;;;3.47;;
22270;SDS011;11304;53.520;10.104;2023-08-17T11:18:16;6.95;;;2.35;;
22270;SDS011;11304;53.520;10.104;2023-08-17T11:20:42;4.82;;;2.40;;
22270;SDS011;11304;53.520;10.104;2023-08-17T11:23:09;3.60;;;1.95;;
22270;SDS011;11304;53.520;10.104;2023-08-17T11:25:35;4.07;;;1.85;;
22270;SDS011;11304;53.520;10.104;2023-08-17T11:28:02;4.57;;;2.28;;
22270;SDS011;11304;53.520;10.104;2023-08-17T11:30:29;3.38;;;2.33;;
22270;SDS011;11304;53.520;10.104;2023-08-17T11:32:56;6.93;;;2.10;;
22270;SDS011;11304;53.520;10.104;2023-08-17T11:35:23;4.53;;;2.33;;
22270;SDS011;11304;53.520;10.104;2023-08-17T11:37:49;3.97;;;2.22;;
22270;SDS011;11304;53.520;10.104;2023-08-17T11:40:15;3.13;;;2.40;;
22270;SDS011;11304;53.520;10.104;2023-08-17T11:42:41;3.45;;;2.30;;
22270;SDS011;11304;53.520;10.104;2023-08-17T11:45:08;5.18;;;2.50;;
22270;SDS011;11304;53.520;10.104;2023-08-17T11:47:34;5.63;;;2.08;;
22270;SDS011;11304;53.520;10.104;2023-08-17T11:50:03;8.20;;;3.15;;
22270;SDS011;11304;53.520;10.104;2023-08-17T11:52:30;8.85;;;3.25;;
22270;SDS011;11304;53.520;10.104;2023-08-17T11:54:58;13.82;;;4.60;;
22270;SDS011;11304;53.520;10.104;2023-08-17T11:57:24;7.82;;;3.80;;
22270;SDS011;11304;53.520;10.104;2023-08-17T11:59:54;5.00;;;2.85;;
22270;SDS011;11304;53.520;10.104;2023-08-17T12:02:20;11.15;;;4.22;;
22270;SDS011;11304;53.520;10.104;2023-08-17T12:04:47;9.98;;;3.97;;
22270;SDS011;11304;53.520;10.104;2023-08-17T12:07:13;18.10;;;4.50;;
22270;SDS011;11304;53.520;10.104;2023-08-17T12:09:42;12.35;;;4.45;;
22270;SDS011;11304;53.520;10.104;2023-08-17T12:12:09;6.35;;;3.83;;
22270;SDS011;11304;53.520;10.104;2023-08-17T12:14:35;3.58;;;2.80;;
22270;SDS011;11304;53.520;10.104;2023-08-17T12:17:03;6.82;;;3.10;;
22270;SDS011;11304;53.520;10.104;2023-08-17T12:19:29;5.13;;;2.60;;
22270;SDS011;11304;53.520;10.104;2023-08-17T12:21:56;6.65;;;2.92;;
22270;SDS011;11304;53.520;10.104;2023-08-17T12:24:26;3.85;;;2.42;;
22270;SDS011;11304;53.520;10.104;2023-08-17T12:26:53;6.72;;;3.08;;
22270;SDS011;11304;53.520;10.104;2023-08-17T12:29:23;4.68;;;2.80;;
22270;SDS011;11304;53.520;10.104;2023-08-17T12:31:49;5.60;;;2.72;;
22270;SDS011;11304;53.520;10.104;2023-08-17T12:34:17;10.68;;;2.90;;
22270;SDS011;11304;53.520;10.104;2023-08-17T12:36:44;5.85;;;2.50;;
22270;SDS011;11304;53.520;10.104;2023-08-17T12:39:10;9.27;;;3.17;;
22270;SDS011;11304;53.520;10.104;2023-08-17T12:41:36;8.80;;;3.53;;
22270;SDS011;11304;53.520;10.104;2023-08-17T12:44:02;5.22;;;2.80;;
22270;SDS011;11304;53.520;10.104;2023-08-17T12:46:29;9.05;;;2.55;;
22270;SDS011;11304;53.520;10.104;2023-08-17T12:48:58;3.80;;;2.53;;
22270;SDS011;11304;53.520;10.104;2023-08-17T12:51:24;4.28;;;1.92;;
22270;SDS011;11304;53.520;10.104;2023-08-17T12:53:50;4.57;;;2.17;;
22270;SDS011;11304;53.520;10.104;2023-08-17T12:56:16;6.03;;;2.30;;
22270;SDS011;11304;53.520;10.104;2023-08-17T12:58:42;4.03;;;2.15;;
22270;SDS011;11304;53.520;10.104;2023-08-17T13:01:08;4.63;;;2.17;;
22270;SDS011;11304;53.520;10.104;2023-08-17T13:03:35;3.65;;;2.08;;
22270;SDS011;11304;53.520;10.104;2023-08-17T13:06:01;2.75;;;1.58;;
22270;SDS011;11304;53.520;10.104;2023-08-17T13:08:27;4.55;;;2.20;;
22270;SDS011;11304;53.520;10.104;2023-08-17T13:10:54;3.40;;;2.20;;
22270;SDS011;11304;53.520;10.104;2023-08-17T13:13:20;6.75;;;2.38;;
22270;SDS011;11304;53.520;10.104;2023-08-17T13:15:46;3.88;;;2.10;;
22270;SDS011;11304;53.520;10.104;2023-08-17T13:18:12;5.07;;;2.25;;
22270;SDS011;11304;53.520;10.104;2023-08-17T13:20:38;3.33;;;1.80;;
22270;SDS011;11304;53.520;10.104;2023-08-17T13:23:05;3.95;;;1.90;;
22270;SDS011;11304;53.520;10.104;2023-08-17T13:25:31;3.67;;;1.63;;
22270;SDS011;11304;53.520;10.104;2023-08-17T13:27:57;3.50;;;1.67;;
22270;SDS011;11304;53.520;10.104;2023-08-17T13:30:23;3.25;;;1.50;;
22270;SDS011;11304;53.520;10.104;2023-08-17T13:32:50;3.38;;;1.45;;
22270;SDS011;11304;53.520;10.104;2023-08-17T13:35:16;4.38;;;1.65;;
22270;SDS011;11304;53.520;10.104;2023-08-17T13:37:42;2.55;;;1.40;;
22270;SDS011;11304;53.520;10.104;2023-08-17T13:40:09;2.63;;;1.33;;
22270;SDS011;11304;53.520;10.104;2023-08-17T13:42:35;4.30;;;1.80;;
22270;SDS011;11304;53.520;10.104;2023-08-17T13:45:02;6.53;;;1.60;;
22270;SDS011;11304;53.520;10.104;2023-08-17T13:47:28;3.35;;;1.45;;
22270;SDS011;11304;53.520;10.104;2023-08-17T13:49:55;3.33;;;1.38;;
22270;SDS011;11304;53.520;10.104;2023-08-17T13:52:22;2.95;;;1.23;;
22270;SDS011;11304;53.520;10.104;2023-08-17T13:54:48;4.38;;;1.60;;
22270;SDS011;11304;53.520;10.104;2023-08-17T13:57:14;4.20;;;1.67;;
22270;SDS011;11304;53.520;10.104;2023-08-17T13:59:40;3.28;;;1.40;;
22270;SDS011;11304;53.520;10.104;2023-08-17T14:02:07;3.30;;;1.65;;
22270;SDS011;11304;53.520;10.104;2023-08-17T14:04:33;3.03;;;1.60;;
22270;SDS011;11304;53.520;10.104;2023-08-17T14:06:59;2.05;;;1.60;;
22270;SDS011;11304;53.520;10.104;2023-08-17T14:09:25;4.22;;;1.77;;
22270;SDS011;11304;53.520;10.104;2023-08-17T14:11:52;3.45;;;1.67;;
22270;SDS011;11304;53.520;10.104;2023-08-17T14:14:18;5.10;;;1.83;;
22270;SDS011;11304;53.520;10.104;2023-08-17T14:16:44;5.95;;;2.03;;
22270;SDS011;11304;53.520;10.104;2023-08-17T14:19:10;4.47;;;2.00;;
22270;SDS011;11304;53.520;10.104;2023-08-17T14:21:36;3.10;;;1.60;;
22270;SDS011;11304;53.520;10.104;2023-08-17T14:24:02;5.45;;;1.85;;
22270;SDS011;11304;53.520;10.104;2023-08-17T14:26:29;3.38;;;1.52;;
22270;SDS011;11304;53.520;10.104;2023-08-17T14:28:55;4.20;;;1.40;;
22270;SDS011;11304;53.520;10.104;2023-08-17T14:31:21;4.93;;;1.48;;
22270;SDS011;11304;53.520;10.104;2023-08-17T14:33:47;3.33;;;1.33;;
22270;SDS011;11304;53.520;10.104;2023-08-17T14:36:14;3.10;;;1.73;;
22270;SDS011;11304;53.520;10.104;2023-08-17T14:38:40;3.15;;;1.15;;
22270;SDS011;11304;53.520;10.104;2023-08-17T14:41:07;3.05;;;1.15;;
22270;SDS011;11304;53.520;10.104;2023-08-17T14:43:34;3.35;;;1.10;;
22270;SDS011;11304;53.520;10.104;2023-08-17T14:46:00;3.92;;;1.40;;